createdAt,value
2022-09-21T00:01:09.914Z,63.84
2022-09-21T00:03:36.291Z,63.88
2022-09-21T00:06:03.152Z,63.62
2022-09-21T00:08:29.496Z,63.62
2022-09-21T00:10:55.771Z,63.66
2022-09-21T00:13:22.021Z,63.57
2022-09-21T00:15:48.298Z,63.95
2022-09-21T00:18:14.587Z,63.86
2022-09-21T00:20:40.862Z,64.11
2022-09-21T00:23:07.190Z,63.56
2022-09-21T00:25:33.502Z,63.69
2022-09-21T00:27:59.783Z,63.86
2022-09-21T00:30:26.045Z,63.64
2022-09-21T00:32:52.339Z,63.67
2022-09-21T00:35:18.649Z,63.70
2022-09-21T00:37:45.073Z,63.74
2022-09-21T00:40:11.486Z,63.64
2022-09-21T00:42:38.126Z,63.85
2022-09-21T00:45:04.403Z,63.73
2022-09-21T00:47:30.644Z,63.72
2022-09-21T00:49:57.413Z,63.73
2022-09-21T00:52:23.676Z,63.82
2022-09-21T00:54:49.953Z,63.60
2022-09-21T00:57:16.232Z,63.60
2022-09-21T00:59:42.525Z,63.75
2022-09-21T01:02:08.828Z,63.80
2022-09-21T01:04:35.183Z,63.79
2022-09-21T01:07:02.000Z,63.74
2022-09-21T01:09:28.762Z,63.71
2022-09-21T01:11:55.093Z,63.70
2022-09-21T01:14:21.706Z,63.63
2022-09-21T01:16:47.989Z,63.55
2022-09-21T01:19:14.251Z,63.55
2022-09-21T01:21:40.670Z,63.68
2022-09-21T01:24:07.179Z,63.77
2022-09-21T01:26:33.605Z,63.64
2022-09-21T01:28:59.862Z,63.86
2022-09-21T01:31:26.220Z,63.60
2022-09-21T01:33:52.507Z,63.57
2022-09-21T01:36:18.830Z,63.63
2022-09-21T01:38:45.095Z,63.67
2022-09-21T01:41:11.404Z,63.74
2022-09-21T01:43:37.619Z,63.87
2022-09-21T01:46:04.280Z,63.60
2022-09-21T01:48:30.613Z,63.58
2022-09-21T01:50:56.911Z,63.52
2022-09-21T01:53:23.209Z,63.90
2022-09-21T01:55:49.541Z,63.79
2022-09-21T01:58:15.788Z,63.39
2022-09-21T02:00:42.128Z,63.55
2022-09-21T02:03:08.605Z,63.60
2022-09-21T02:05:35.075Z,63.57
2022-09-21T02:08:01.762Z,63.56
2022-09-21T02:10:28.118Z,63.59
2022-09-21T02:12:54.428Z,63.71
2022-09-21T02:15:22.940Z,63.66
2022-09-21T02:17:49.315Z,63.80
2022-09-21T02:20:15.827Z,63.76
2022-09-21T02:22:42.336Z,63.71
2022-09-21T02:25:08.644Z,63.62
2022-09-21T02:27:34.909Z,63.84
2022-09-21T02:30:01.161Z,63.79
2022-09-21T02:32:27.481Z,63.71
2022-09-21T02:34:53.888Z,63.22
2022-09-21T02:37:20.167Z,63.73
2022-09-21T02:39:48.393Z,63.59
2022-09-21T02:42:14.653Z,63.79
2022-09-21T02:44:41.195Z,63.74
2022-09-21T02:47:07.566Z,63.60
2022-09-21T02:49:33.855Z,63.68
2022-09-21T02:52:00.114Z,63.49
2022-09-21T02:54:26.473Z,63.83
2022-09-21T02:56:52.841Z,63.65
2022-09-21T02:59:19.161Z,63.36
2022-09-21T03:01:45.752Z,63.47
2022-09-21T03:04:12.017Z,63.63
2022-09-21T03:06:38.325Z,63.65
2022-09-21T03:09:04.608Z,63.41
2022-09-21T03:11:30.903Z,63.47
2022-09-21T03:13:57.204Z,63.70
2022-09-21T03:16:23.787Z,63.49
2022-09-21T03:18:50.386Z,63.37
2022-09-21T03:21:16.736Z,63.85
2022-09-21T03:23:43.111Z,63.54
2022-09-21T03:26:09.465Z,63.40
2022-09-21T03:28:35.897Z,63.54
2022-09-21T03:31:02.204Z,63.59
2022-09-21T03:33:28.557Z,63.58
2022-09-21T03:35:55.159Z,63.33
2022-09-21T03:38:21.510Z,63.54
2022-09-21T03:40:47.837Z,63.32
2022-09-21T03:43:14.146Z,63.41
2022-09-21T03:45:40.465Z,63.32
2022-09-21T03:48:06.916Z,63.38
2022-09-21T03:50:33.309Z,63.55
2022-09-21T03:52:59.613Z,63.53
2022-09-21T03:55:26.891Z,63.36
2022-09-21T03:57:53.235Z,63.26
2022-09-21T04:00:20.215Z,63.49
2022-09-21T04:02:46.493Z,63.50
2022-09-21T04:05:12.877Z,63.39
2022-09-21T04:07:39.107Z,63.46
2022-09-21T04:10:05.665Z,63.46
2022-09-21T04:12:32.037Z,63.21
2022-09-21T04:14:58.560Z,63.51
2022-09-21T04:17:24.823Z,63.40
2022-09-21T04:19:53.451Z,63.36
2022-09-21T04:22:20.270Z,63.33
2022-09-21T04:24:46.485Z,63.37
2022-09-21T04:27:12.727Z,63.23
2022-09-21T04:29:39.219Z,63.30
2022-09-21T04:32:06.351Z,63.32
2022-09-21T04:34:32.612Z,63.43
2022-09-21T04:36:58.880Z,63.60
2022-09-21T04:39:25.413Z,63.62
2022-09-21T04:41:51.759Z,63.25
2022-09-21T04:44:18.125Z,63.51
2022-09-21T04:46:44.458Z,63.41
2022-09-21T04:49:10.720Z,63.17
2022-09-21T04:51:37.021Z,63.31
2022-09-21T04:54:03.381Z,63.29
2022-09-21T04:56:29.601Z,63.55
2022-09-21T04:58:55.867Z,63.36
2022-09-21T05:01:22.202Z,63.35
2022-09-21T05:03:48.543Z,63.24
2022-09-21T05:06:15.008Z,63.26
2022-09-21T05:08:41.752Z,63.06
2022-09-21T05:11:07.996Z,63.33
2022-09-21T05:13:34.255Z,63.07
2022-09-21T05:16:00.573Z,63.24
2022-09-21T05:18:27.170Z,63.51
2022-09-21T05:20:54.696Z,63.11
2022-09-21T05:23:21.114Z,63.23
2022-09-21T05:25:47.389Z,63.42
2022-09-21T05:28:13.587Z,63.32
2022-09-21T05:30:47.798Z,63.39
2022-09-21T05:33:26.380Z,63.02
2022-09-21T05:35:52.669Z,63.21
2022-09-21T05:38:19.009Z,63.39
2022-09-21T05:40:45.388Z,63.04
2022-09-21T05:43:11.790Z,63.07
2022-09-21T05:45:38.253Z,63.15
2022-09-21T05:48:04.849Z,63.17
2022-09-21T05:50:31.158Z,63.47
2022-09-21T05:52:57.457Z,63.31
2022-09-21T05:55:24.239Z,63.42
2022-09-21T05:57:50.627Z,63.27
2022-09-21T06:00:17.026Z,63.35
2022-09-21T06:02:43.303Z,63.17
2022-09-21T06:05:09.798Z,63.63
2022-09-21T06:07:36.172Z,63.27
2022-09-21T06:10:03.022Z,63.27
2022-09-21T06:12:29.366Z,63.14
2022-09-21T06:14:55.784Z,63.21
2022-09-21T06:17:22.081Z,63.35
2022-09-21T06:19:48.328Z,62.97
2022-09-21T06:22:14.743Z,63.41
2022-09-21T06:24:41.094Z,62.34
2022-09-21T06:27:07.567Z,63.42
2022-09-21T06:29:34.199Z,62.95
2022-09-21T06:32:00.534Z,62.79
2022-09-21T06:34:26.791Z,62.75
2022-09-21T06:36:53.054Z,63.14
2022-09-21T06:39:19.397Z,62.88
2022-09-21T06:41:45.941Z,62.76
2022-09-21T06:44:12.272Z,62.73
2022-09-21T06:46:38.874Z,62.90
2022-09-21T06:49:05.336Z,62.74
2022-09-21T06:51:31.662Z,63.08
2022-09-21T06:53:57.912Z,62.77
2022-09-21T06:56:25.799Z,63.00
2022-09-21T06:58:52.216Z,62.76
2022-09-21T07:01:18.573Z,62.72
2022-09-21T07:03:45.217Z,62.82
2022-09-21T07:06:11.696Z,63.14
2022-09-21T07:11:26.696Z,63.03
2022-09-21T07:13:53.138Z,63.10
2022-09-21T07:16:19.550Z,63.56
2022-09-21T07:18:45.947Z,63.27
2022-09-21T07:21:12.364Z,63.49
2022-09-21T07:23:38.625Z,63.43
2022-09-21T07:26:04.928Z,63.50
2022-09-21T07:28:31.292Z,63.08
2022-09-21T07:30:57.523Z,62.75
2022-09-21T07:33:23.828Z,62.80
2022-09-21T07:35:50.101Z,62.78
2022-09-21T07:38:16.368Z,62.80
2022-09-21T07:40:42.768Z,63.10
2022-09-21T07:43:09.095Z,63.03
2022-09-21T07:45:35.384Z,63.09
2022-09-21T07:48:01.693Z,62.84
2022-09-21T07:50:28.051Z,62.74
2022-09-21T07:52:54.436Z,62.82
2022-09-21T07:55:20.685Z,62.79
2022-09-21T07:57:46.987Z,63.10
2022-09-21T08:00:13.362Z,62.97
2022-09-21T08:02:42.659Z,62.91
2022-09-21T08:05:11.662Z,63.00
2022-09-21T08:07:37.944Z,63.01
2022-09-21T08:10:04.264Z,62.95
2022-09-21T08:12:30.562Z,63.21
2022-09-21T08:14:56.874Z,63.24
2022-09-21T08:17:23.135Z,63.21
2022-09-21T08:19:49.458Z,63.10
2022-09-21T08:22:15.802Z,63.30
2022-09-21T08:24:42.158Z,63.06
2022-09-21T08:27:08.553Z,63.10
2022-09-21T08:29:34.938Z,63.44
2022-09-21T08:32:01.294Z,63.53
2022-09-21T08:34:27.517Z,63.37
2022-09-21T08:36:55.762Z,63.46
2022-09-21T08:39:22.361Z,63.55
2022-09-21T08:41:48.624Z,63.28
2022-09-21T08:44:15.014Z,63.25
2022-09-21T08:46:41.328Z,63.36
2022-09-21T08:49:07.752Z,63.62
2022-09-21T08:51:34.012Z,63.41
2022-09-21T08:54:00.447Z,63.76
2022-09-21T08:56:41.605Z,63.47
2022-09-21T08:59:12.992Z,63.47
2022-09-21T09:01:39.321Z,63.67
2022-09-21T09:04:06.050Z,63.48
2022-09-21T09:06:32.476Z,63.35
2022-09-21T09:08:58.993Z,63.51
2022-09-21T09:11:25.260Z,63.76
2022-09-21T09:13:51.584Z,63.35
2022-09-21T09:16:18.019Z,63.54
2022-09-21T09:18:44.663Z,63.64
2022-09-21T09:21:11.374Z,63.48
2022-09-21T09:23:37.864Z,63.73
2022-09-21T09:26:04.217Z,63.70
2022-09-21T09:28:30.493Z,63.91
2022-09-21T09:30:56.779Z,63.79
2022-09-21T09:33:23.110Z,63.63
2022-09-21T09:35:49.425Z,63.64
2022-09-21T09:38:15.879Z,63.83
2022-09-21T09:40:42.325Z,63.73
2022-09-21T09:43:08.938Z,63.68
2022-09-21T09:45:35.226Z,63.67
2022-09-21T09:48:01.498Z,63.84
2022-09-21T09:50:27.748Z,63.88
2022-09-21T09:52:54.481Z,63.80
2022-09-21T09:55:20.793Z,63.69
2022-09-21T09:57:47.071Z,63.73
2022-09-21T10:00:13.405Z,63.94
2022-09-21T10:02:39.746Z,63.71
2022-09-21T10:05:06.203Z,63.75
2022-09-21T10:07:32.597Z,63.74
2022-09-21T10:09:59.037Z,63.81
2022-09-21T10:12:25.613Z,63.84
2022-09-21T10:14:52.061Z,63.91
2022-09-21T10:17:18.571Z,63.68
2022-09-21T10:19:44.917Z,63.60
2022-09-21T10:22:11.274Z,64.01
2022-09-21T10:24:37.512Z,63.75
2022-09-21T10:29:43.267Z,63.97
2022-09-21T10:32:14.263Z,63.85
2022-09-21T10:34:40.991Z,64.10
2022-09-21T10:37:07.235Z,63.99
2022-09-21T10:39:33.716Z,63.79
2022-09-21T10:42:00.072Z,63.69
2022-09-21T10:44:26.372Z,64.08
2022-09-21T10:46:53.031Z,63.78
2022-09-21T10:49:20.484Z,63.65
2022-09-21T10:51:47.089Z,63.80
2022-09-21T10:54:13.601Z,63.88
2022-09-21T10:56:40.096Z,64.08
2022-09-21T10:59:06.435Z,64.13
2022-09-21T11:01:33.020Z,63.82
2022-09-21T11:03:59.825Z,63.92
2022-09-21T11:06:26.157Z,63.86
2022-09-21T11:08:52.469Z,64.17
2022-09-21T11:11:19.257Z,63.89
2022-09-21T11:13:45.696Z,63.79
2022-09-21T11:16:12.111Z,64.16
2022-09-21T11:18:38.407Z,63.91
2022-09-21T11:21:04.767Z,63.92
2022-09-21T11:23:31.090Z,64.18
2022-09-21T11:25:57.797Z,63.98
2022-09-21T11:28:24.041Z,64.18
2022-09-21T11:30:50.606Z,64.16
2022-09-21T11:33:17.112Z,64.11
2022-09-21T11:35:43.644Z,63.99
2022-09-21T11:38:09.903Z,64.00
2022-09-21T11:40:36.457Z,64.30
2022-09-21T11:43:02.797Z,63.99
2022-09-21T11:45:30.081Z,64.31
2022-09-21T11:47:56.332Z,64.12
2022-09-21T11:50:31.150Z,64.05
2022-09-21T11:52:57.916Z,63.99
2022-09-21T11:55:24.178Z,63.99
2022-09-21T11:57:54.261Z,63.95
2022-09-21T12:00:21.406Z,64.31
2022-09-21T12:02:48.006Z,64.12
2022-09-21T12:05:14.519Z,64.13
2022-09-21T12:07:41.079Z,64.11
2022-09-21T12:10:10.314Z,64.26
2022-09-21T12:12:37.710Z,63.82
2022-09-21T12:15:04.108Z,63.87
2022-09-21T12:17:30.377Z,64.31
2022-09-21T12:19:56.634Z,64.33
2022-09-21T12:22:23.869Z,64.20
2022-09-21T12:24:50.235Z,64.10
2022-09-21T12:27:17.387Z,64.07
2022-09-21T12:29:43.679Z,64.08
2022-09-21T12:32:10.268Z,64.21
2022-09-21T12:34:36.653Z,64.30
2022-09-21T12:37:03.893Z,64.04
2022-09-21T12:39:30.133Z,64.20
2022-09-21T12:41:56.524Z,64.19
2022-09-21T12:44:22.848Z,64.15
2022-09-21T12:46:52.361Z,64.35
2022-09-21T12:49:19.555Z,63.77
2022-09-21T12:51:45.846Z,64.07
2022-09-21T12:54:12.188Z,64.14
2022-09-21T12:56:38.664Z,64.42
2022-09-21T12:59:05.129Z,64.47
2022-09-21T13:01:31.732Z,64.51
2022-09-21T13:03:58.071Z,64.47
2022-09-21T13:06:24.416Z,64.62
2022-09-21T13:08:51.146Z,64.26
2022-09-21T13:11:17.434Z,64.39
2022-09-21T13:13:44.004Z,64.41
2022-09-21T13:16:10.332Z,64.19
2022-09-21T13:18:36.931Z,64.55
2022-09-21T13:21:03.236Z,64.19
2022-09-21T13:23:29.581Z,64.38
2022-09-21T13:25:55.914Z,64.48
2022-09-21T13:28:22.194Z,64.25
2022-09-21T13:30:48.494Z,64.25
2022-09-21T13:33:15.133Z,64.51
2022-09-21T13:35:41.526Z,64.41
2022-09-21T13:38:07.767Z,64.54
2022-09-21T13:40:34.270Z,64.26
2022-09-21T13:43:00.697Z,64.41
2022-09-21T13:45:27.115Z,64.44
2022-09-21T13:47:53.511Z,64.57
2022-09-21T13:50:19.757Z,64.35
2022-09-21T13:52:46.020Z,64.63
2022-09-21T13:55:12.423Z,64.62
2022-09-21T13:57:38.734Z,64.79
2022-09-21T14:00:05.053Z,64.41
2022-09-21T14:02:31.495Z,64.53
2022-09-21T14:04:58.009Z,64.55
2022-09-21T14:07:24.268Z,64.75
2022-09-21T14:09:50.536Z,64.49
2022-09-21T14:12:16.816Z,64.53
2022-09-21T14:14:43.064Z,64.44
2022-09-21T14:17:09.360Z,64.43
2022-09-21T14:19:35.824Z,64.53
2022-09-21T14:22:02.161Z,64.46
2022-09-21T14:24:28.481Z,64.71
2022-09-21T14:26:54.911Z,64.72
2022-09-21T14:29:21.159Z,64.58
2022-09-21T14:31:47.512Z,64.49
2022-09-21T14:34:13.824Z,64.53
2022-09-21T14:36:40.096Z,64.62
2022-09-21T14:39:06.487Z,64.82
2022-09-21T14:41:32.936Z,65.03
2022-09-21T14:43:59.356Z,64.74
2022-09-21T14:46:25.692Z,64.81
2022-09-21T14:48:52.232Z,64.83
2022-09-21T14:51:18.647Z,64.76
2022-09-21T14:53:44.891Z,65.00
2022-09-21T14:56:11.496Z,65.13
2022-09-21T14:58:41.693Z,64.84
2022-09-21T15:01:11.421Z,64.82
2022-09-21T15:03:37.772Z,64.91
2022-09-21T15:06:04.114Z,64.83
2022-09-21T15:08:30.416Z,65.00
2022-09-21T15:10:56.675Z,65.04
2022-09-21T15:13:23.249Z,65.43
2022-09-21T15:15:49.629Z,65.24
2022-09-21T15:18:16.193Z,64.90
2022-09-21T15:20:42.704Z,65.21
2022-09-21T15:23:09.019Z,65.27
2022-09-21T15:25:35.829Z,65.03
2022-09-21T15:28:02.129Z,65.08
2022-09-21T15:30:28.473Z,65.27
2022-09-21T15:32:55.103Z,64.95
2022-09-21T15:35:21.458Z,65.23
2022-09-21T15:37:47.920Z,64.95
2022-09-21T15:40:14.281Z,64.91
2022-09-21T15:42:40.586Z,65.08
2022-09-21T15:45:07.068Z,65.04
2022-09-21T15:47:33.394Z,64.96
2022-09-21T15:49:59.670Z,64.97
2022-09-21T15:52:25.924Z,64.90
2022-09-21T15:54:52.215Z,64.87
2022-09-21T15:57:18.451Z,65.02
2022-09-21T15:59:44.889Z,65.02
2022-09-21T16:02:11.186Z,65.04
2022-09-21T16:04:37.493Z,65.04
2022-09-21T16:07:03.756Z,65.23
2022-09-21T16:09:30.010Z,65.03
2022-09-21T16:11:56.382Z,64.90
2022-09-21T16:14:22.835Z,64.90
2022-09-21T16:16:49.400Z,65.22
2022-09-21T16:19:15.613Z,65.20
2022-09-21T16:21:42.099Z,64.98
2022-09-21T16:24:08.350Z,64.90
2022-09-21T16:26:34.689Z,65.43
2022-09-21T16:29:00.988Z,64.95
2022-09-21T16:31:27.415Z,65.27
2022-09-21T16:33:54.133Z,65.25
2022-09-21T16:36:20.454Z,64.96
2022-09-21T16:38:46.867Z,65.01
2022-09-21T16:41:13.388Z,64.95
2022-09-21T16:43:39.631Z,65.15
2022-09-21T16:46:05.951Z,65.28
2022-09-21T16:48:32.310Z,65.08
2022-09-21T16:50:58.552Z,65.00
2022-09-21T16:53:24.938Z,65.44
2022-09-21T16:55:51.171Z,64.99
2022-09-21T16:58:17.704Z,65.11
2022-09-21T17:00:44.193Z,65.36
2022-09-21T17:03:10.817Z,65.05
2022-09-21T17:05:37.187Z,65.23
2022-09-21T17:08:03.717Z,65.01
2022-09-21T17:10:30.624Z,65.30
2022-09-21T17:12:57.096Z,65.14
2022-09-21T17:15:23.515Z,65.05
2022-09-21T17:17:49.980Z,65.04
2022-09-21T17:20:16.264Z,65.10
2022-09-21T17:22:42.561Z,65.26
2022-09-21T17:25:08.817Z,65.32
2022-09-21T17:27:35.055Z,65.06
2022-09-21T17:30:01.318Z,64.90
2022-09-21T17:32:28.881Z,65.03
2022-09-21T17:34:55.229Z,65.18
2022-09-21T17:37:21.511Z,65.10
2022-09-21T17:39:47.914Z,65.08
2022-09-21T17:42:14.257Z,65.46
2022-09-21T17:44:40.545Z,65.11
2022-09-21T17:47:08.133Z,65.24
2022-09-21T17:49:34.666Z,65.17
2022-09-21T17:52:00.949Z,65.25
2022-09-21T17:54:27.505Z,65.19
2022-09-21T17:56:53.765Z,65.20
2022-09-21T17:59:20.228Z,64.95
2022-09-21T18:01:46.690Z,65.13
2022-09-21T18:04:13.503Z,65.05
2022-09-21T18:06:40.376Z,64.74
2022-09-21T18:09:06.817Z,65.18
2022-09-21T18:11:33.275Z,65.05
2022-09-21T18:13:59.799Z,64.94
2022-09-21T18:16:26.097Z,64.90
2022-09-21T18:18:52.425Z,65.12
2022-09-21T18:21:18.799Z,65.08
2022-09-21T18:23:45.053Z,64.94
2022-09-21T18:26:11.585Z,64.79
2022-09-21T18:28:38.109Z,65.23
2022-09-21T18:31:04.406Z,65.15
2022-09-21T18:33:30.746Z,65.30
2022-09-21T18:35:57.036Z,65.22
2022-09-21T18:38:23.432Z,65.35
2022-09-21T18:40:49.789Z,65.73
2022-09-21T18:43:16.200Z,65.59
2022-09-21T18:45:42.443Z,65.66
2022-09-21T18:48:08.704Z,66.04
2022-09-21T18:50:34.994Z,66.08
2022-09-21T18:53:01.360Z,66.05
2022-09-21T18:55:27.687Z,66.30
2022-09-21T18:57:54.045Z,66.20
2022-09-21T19:00:20.393Z,66.04
2022-09-21T19:03:05.451Z,65.92
2022-09-21T19:05:33.012Z,66.14
2022-09-21T19:08:00.217Z,66.31
2022-09-21T19:10:26.458Z,66.15
2022-09-21T19:12:52.929Z,65.81
2022-09-21T19:15:27.466Z,66.29
2022-09-21T19:18:02.932Z,65.98
2022-09-21T19:20:29.241Z,66.29
2022-09-21T19:22:55.541Z,66.01
2022-09-21T19:25:21.836Z,66.18
2022-09-21T19:27:48.076Z,66.04
2022-09-21T19:30:14.584Z,65.99
2022-09-21T19:32:40.861Z,65.93
2022-09-21T19:35:07.094Z,65.98
2022-09-21T19:37:33.300Z,66.01
2022-09-21T19:39:59.552Z,65.78
2022-09-21T19:42:29.990Z,65.91
2022-09-21T19:44:56.704Z,66.17
2022-09-21T19:47:23.126Z,65.89
2022-09-21T19:49:49.484Z,65.84
2022-09-21T19:52:15.714Z,65.96
2022-09-21T19:54:42.004Z,65.66
2022-09-21T19:57:08.275Z,65.64
2022-09-21T19:59:34.528Z,65.66
2022-09-21T20:02:00.856Z,65.39
2022-09-21T20:04:27.144Z,66.05
2022-09-21T20:06:53.494Z,65.86
2022-09-21T20:09:19.780Z,65.72
2022-09-21T20:11:46.364Z,65.59
2022-09-21T20:14:12.657Z,65.66
2022-09-21T20:16:39.234Z,65.27
2022-09-21T20:19:05.572Z,65.62
2022-09-21T20:21:31.814Z,65.09
2022-09-21T20:23:58.183Z,65.56
2022-09-21T20:26:24.724Z,65.32
2022-09-21T20:28:51.032Z,65.54
2022-09-21T20:31:17.366Z,65.31
2022-09-21T20:33:43.658Z,65.41
2022-09-21T20:36:10.099Z,65.32
2022-09-21T20:38:36.406Z,65.38
2022-09-21T20:41:02.640Z,65.07
2022-09-21T20:43:32.420Z,65.15
2022-09-21T20:45:59.228Z,65.06
2022-09-21T20:48:25.729Z,65.42
2022-09-21T20:50:52.007Z,65.34
2022-09-21T20:53:18.389Z,65.29
2022-09-21T20:55:45.313Z,65.15
2022-09-21T20:58:11.571Z,65.02
2022-09-21T21:00:37.964Z,65.46
2022-09-21T21:03:04.265Z,65.44
2022-09-21T21:05:30.524Z,65.28
2022-09-21T21:07:56.802Z,65.03
2022-09-21T21:10:23.129Z,65.38
2022-09-21T21:12:49.590Z,65.45
2022-09-21T21:15:15.927Z,65.06
2022-09-21T21:17:42.513Z,65.49
2022-09-21T21:20:09.012Z,65.19
2022-09-21T21:22:35.443Z,65.41
2022-09-21T21:25:01.698Z,65.18
2022-09-21T21:27:28.273Z,65.14
2022-09-21T21:29:54.670Z,65.04
2022-09-21T21:32:21.016Z,65.33
2022-09-21T21:34:47.353Z,65.17
2022-09-21T21:37:13.676Z,65.29
2022-09-21T21:39:39.978Z,65.02
2022-09-21T21:42:06.237Z,65.16
2022-09-21T21:44:32.823Z,65.14
2022-09-21T21:47:15.124Z,65.01
2022-09-21T21:49:45.425Z,64.88
2022-09-21T21:52:11.753Z,65.01
2022-09-21T21:54:38.110Z,64.97
2022-09-21T21:57:04.373Z,65.01
2022-09-21T21:59:30.691Z,64.95
2022-09-21T22:01:56.985Z,64.92
2022-09-21T22:04:27.100Z,64.91
2022-09-21T22:06:54.442Z,65.10
2022-09-21T22:09:20.954Z,65.10
2022-09-21T22:11:47.305Z,65.15
2022-09-21T22:14:13.606Z,65.18
2022-09-21T22:16:40.013Z,65.17
2022-09-21T22:19:06.409Z,64.87
2022-09-21T22:21:32.645Z,65.08
2022-09-21T22:23:59.112Z,64.89
2022-09-21T22:26:25.486Z,64.91
2022-09-21T22:28:52.033Z,64.86
2022-09-21T22:31:18.342Z,64.86
2022-09-21T22:33:44.678Z,65.10
2022-09-21T22:36:11.004Z,64.99
2022-09-21T22:38:41.929Z,65.22
2022-09-21T22:41:09.321Z,64.88
2022-09-21T22:43:35.588Z,65.06
2022-09-21T22:46:01.928Z,65.17
2022-09-21T22:48:28.537Z,65.12
2022-09-21T22:50:54.947Z,65.10
2022-09-21T22:53:21.292Z,65.10
2022-09-21T22:55:47.529Z,65.00
2022-09-21T22:58:13.767Z,65.01
2022-09-21T23:00:40.241Z,65.25
2022-09-21T23:03:06.484Z,65.26
2022-09-21T23:05:32.717Z,65.36
2022-09-21T23:07:59.013Z,64.93
2022-09-21T23:10:25.556Z,64.87
2022-09-21T23:12:51.883Z,64.90
2022-09-21T23:15:18.196Z,64.96
2022-09-21T23:17:44.648Z,64.91
2022-09-21T23:20:11.123Z,64.82
2022-09-21T23:22:37.391Z,64.95
2022-09-21T23:25:03.901Z,65.00
2022-09-21T23:27:30.299Z,64.88
2022-09-21T23:29:56.644Z,65.21
2022-09-21T23:32:23.041Z,65.04
2022-09-21T23:34:49.401Z,65.16
2022-09-21T23:37:15.676Z,65.38
2022-09-21T23:39:41.956Z,65.06
2022-09-21T23:42:08.317Z,64.92
2022-09-21T23:44:34.754Z,65.09
2022-09-21T23:47:01.118Z,64.79
2022-09-21T23:49:27.692Z,65.24
2022-09-21T23:51:53.949Z,65.35
2022-09-21T23:54:20.257Z,65.15
2022-09-21T23:56:46.659Z,64.93
2022-09-21T23:59:13.175Z,65.38
